Chaiyaphum, Thailand
Current Conditions -  °F | °C
As of 11:00 PM on Monday 26 Jan 2015 (Local Time) from VTUK Reporting Station
Clear Clear  
Wind Chill: 72°   Ceiling: Unl
Heat Index: 72°   Visibility: 4mi
Dew Point: 57°   Wind: 3mph
Humidity: 60%   Direction: 10°N
Pressure: 29.91"   Gusts: NA
Location:  15.8°N, 102.04°E
Report Text: VTUK 261600Z 01003KT 6000 NSC 22/14 Q1013 A2993 NOSIG
Loading
Personal Weather Stations






























Interactive Weather Map New forecast layout! Learn more

10-Day Weather Forecast

Advertisements
Track Severe Weather on mobile